createdAt,value
2019-03-05T00:00:57.335Z,6.90
2019-03-05T00:03:23.501Z,6.90
2019-03-05T00:05:49.571Z,6.90
2019-03-05T00:08:15.763Z,6.90
2019-03-05T00:10:42.079Z,6.90
2019-03-05T00:13:09.538Z,6.90
2019-03-05T00:15:35.698Z,6.80
2019-03-05T00:18:02.587Z,6.80
2019-03-05T00:20:31.625Z,6.80
2019-03-05T00:22:57.696Z,6.80
2019-03-05T00:25:29.464Z,6.80
2019-03-05T00:28:18.903Z,6.80
2019-03-05T00:30:49.179Z,6.80
2019-03-05T00:33:23.816Z,6.70
2019-03-05T00:36:04.612Z,6.70
2019-03-05T00:38:46.643Z,6.70
2019-03-05T00:41:34.343Z,6.70
2019-03-05T00:44:16.726Z,6.60
2019-03-05T00:47:01.520Z,6.60
2019-03-05T00:49:47.609Z,6.60
2019-03-05T00:52:35.620Z,6.50
2019-03-05T00:55:05.558Z,6.50
2019-03-05T00:57:48.230Z,6.50
2019-03-05T01:00:21.676Z,6.50
2019-03-05T01:03:06.947Z,6.40
2019-03-05T01:05:42.601Z,6.40
2019-03-05T01:08:09.112Z,6.30
2019-03-05T01:10:36.385Z,6.30
2019-03-05T01:13:07.824Z,6.30
2019-03-05T01:15:33.988Z,6.20
2019-03-05T01:18:00.184Z,6.20
2019-03-05T01:20:26.429Z,6.20
2019-03-05T01:22:52.538Z,6.20
2019-03-05T01:25:30.538Z,6.10
2019-03-05T01:27:57.456Z,6.10
2019-03-05T01:30:58.653Z,6.10
2019-03-05T01:33:27.136Z,6.20
2019-03-05T01:35:55.424Z,6.20
2019-03-05T01:38:22.126Z,6.10
2019-03-05T01:40:49.169Z,6.10
2019-03-05T01:43:15.209Z,6.10
2019-03-05T01:45:43.382Z,6.20
2019-03-05T01:48:10.510Z,6.20
2019-03-05T01:50:38.446Z,6.30
2019-03-05T01:53:04.469Z,6.40
2019-03-05T01:55:30.548Z,6.30
2019-03-05T01:57:57.937Z,6.40
2019-03-05T02:00:24.257Z,6.50
2019-03-05T02:02:51.793Z,6.50
2019-03-05T02:05:18.614Z,6.60
2019-03-05T02:07:44.856Z,6.60
2019-03-05T02:10:17.472Z,6.60
2019-03-05T02:12:43.592Z,6.60
2019-03-05T02:15:11.291Z,6.70
2019-03-05T02:17:37.662Z,6.70
2019-03-05T02:20:11.443Z,6.70
2019-03-05T02:22:38.172Z,6.70
2019-03-05T02:25:12.065Z,6.70
2019-03-05T02:27:56.908Z,6.70
2019-03-05T02:30:35.797Z,6.70
2019-03-05T02:33:28.416Z,6.70
2019-03-05T02:36:03.702Z,6.70
2019-03-05T02:38:54.738Z,6.70
2019-03-05T02:41:42.927Z,6.70
2019-03-05T02:44:33.775Z,6.70
2019-03-05T02:47:09.827Z,6.70
2019-03-05T02:50:11.648Z,6.70
2019-03-05T02:52:42.829Z,6.70
2019-03-05T02:55:21.634Z,6.70
2019-03-05T02:57:47.534Z,6.70
2019-03-05T03:00:18.190Z,6.70
2019-03-05T03:02:48.000Z,6.60
2019-03-05T03:05:25.496Z,6.70
2019-03-05T03:07:52.475Z,6.70
2019-03-05T03:10:21.389Z,6.70
2019-03-05T03:12:47.826Z,6.60
2019-03-05T03:15:14.579Z,6.60
2019-03-05T03:17:41.876Z,6.60
2019-03-05T03:20:10.852Z,6.50
2019-03-05T03:22:37.097Z,6.50
2019-03-05T03:25:07.458Z,6.50
2019-03-05T03:27:33.562Z,6.50
2019-03-05T03:29:59.710Z,6.60
2019-03-05T03:32:27.085Z,6.50
2019-03-05T03:34:54.023Z,6.50
2019-03-05T03:37:20.130Z,6.50
2019-03-05T03:39:46.236Z,6.50
2019-03-05T03:42:14.468Z,6.50
2019-03-05T03:44:42.580Z,6.60
2019-03-05T03:47:11.780Z,6.60
2019-03-05T03:49:38.144Z,6.60
2019-03-05T03:52:04.833Z,6.60
2019-03-05T03:54:31.247Z,6.60
2019-03-05T03:56:57.450Z,6.60
2019-03-05T03:59:23.635Z,6.60
2019-03-05T04:01:52.120Z,6.60
2019-03-05T04:04:21.520Z,6.60
2019-03-05T04:06:47.801Z,6.60
2019-03-05T04:09:14.154Z,6.70
2019-03-05T04:11:40.379Z,6.70
2019-03-05T04:14:06.543Z,6.60
2019-03-05T04:16:35.802Z,6.60
2019-03-05T04:19:05.139Z,6.60
2019-03-05T04:21:32.569Z,6.70
2019-03-05T04:23:58.866Z,6.60
2019-03-05T04:26:25.852Z,6.60
2019-03-05T04:28:53.206Z,6.50
2019-03-05T04:31:23.453Z,6.50
2019-03-05T04:33:52.510Z,6.50
2019-03-05T04:36:18.669Z,6.50
2019-03-05T04:38:44.873Z,6.50
2019-03-05T04:41:11.466Z,6.50
2019-03-05T04:43:37.545Z,6.40
2019-03-05T04:46:09.754Z,6.40
2019-03-05T04:48:35.987Z,6.50
2019-03-05T04:51:04.223Z,6.50
2019-03-05T04:53:30.460Z,6.50
2019-03-05T04:55:58.345Z,6.50
2019-03-05T04:58:27.289Z,6.50
2019-03-05T05:00:54.456Z,6.50
2019-03-05T05:03:21.702Z,6.50
2019-03-05T05:05:50.317Z,6.50
2019-03-05T05:08:16.334Z,6.50
2019-03-05T05:10:44.930Z,6.50
2019-03-05T05:13:12.477Z,6.50
2019-03-05T05:15:38.696Z,6.40
2019-03-05T05:18:06.481Z,6.50
2019-03-05T05:20:32.838Z,6.50
2019-03-05T05:22:59.087Z,6.50
2019-03-05T05:25:25.445Z,6.50
2019-03-05T05:27:51.938Z,6.50
2019-03-05T05:30:31.696Z,6.50
2019-03-05T05:33:00.851Z,6.50
2019-03-05T05:35:28.429Z,6.50
2019-03-05T05:37:56.853Z,6.50
2019-03-05T05:40:45.919Z,6.60
2019-03-05T05:43:15.307Z,6.60
2019-03-05T05:45:50.280Z,6.60
2019-03-05T05:48:17.851Z,6.60
2019-03-05T05:50:45.223Z,6.60
2019-03-05T05:53:11.592Z,6.60
2019-03-05T05:55:37.785Z,6.60
2019-03-05T05:58:04.470Z,6.70
2019-03-05T06:00:31.003Z,6.70
2019-03-05T06:03:00.058Z,6.70
2019-03-05T06:05:28.229Z,6.70
2019-03-05T06:07:54.479Z,6.70
2019-03-05T06:10:20.984Z,6.70
2019-03-05T06:12:47.283Z,6.70
2019-03-05T06:15:14.315Z,6.70
2019-03-05T06:17:41.821Z,6.70
2019-03-05T06:20:16.072Z,6.70
2019-03-05T06:22:42.625Z,6.70
2019-03-05T06:25:13.807Z,6.70
2019-03-05T06:27:43.211Z,6.60
2019-03-05T06:30:18.053Z,6.70
2019-03-05T06:32:46.228Z,6.70
2019-03-05T06:35:14.941Z,6.60
2019-03-05T06:37:41.296Z,6.70
2019-03-05T06:40:16.131Z,6.70
2019-03-05T06:42:42.405Z,6.80
2019-03-05T06:45:11.345Z,6.80
2019-03-05T06:47:37.443Z,6.70
2019-03-05T06:50:07.216Z,6.70
2019-03-05T06:52:40.916Z,6.70
2019-03-05T06:55:09.678Z,6.80
2019-03-05T06:57:35.771Z,6.80
2019-03-05T07:00:09.713Z,6.80
2019-03-05T07:02:36.323Z,6.80
2019-03-05T07:05:03.678Z,6.90
2019-03-05T07:07:30.377Z,6.90
2019-03-05T07:10:03.945Z,6.90
2019-03-05T07:12:33.857Z,6.90
2019-03-05T07:15:22.115Z,6.90
2019-03-05T07:18:00.282Z,6.90
2019-03-05T07:20:42.287Z,7.00
2019-03-05T07:23:12.420Z,7.00
2019-03-05T07:25:40.679Z,7.00
2019-03-05T07:28:08.234Z,7.10
2019-03-05T07:30:36.301Z,7.10
2019-03-05T07:33:02.950Z,7.10
2019-03-05T07:35:30.016Z,7.00
2019-03-05T07:38:00.385Z,7.00
2019-03-05T07:40:28.626Z,7.00
2019-03-05T07:42:54.911Z,7.00
2019-03-05T07:45:21.256Z,7.00
2019-03-05T07:47:47.411Z,7.10
2019-03-05T07:50:15.797Z,7.10
2019-03-05T07:52:41.961Z,7.10
2019-03-05T07:55:14.415Z,7.10
2019-03-05T07:57:40.606Z,7.10
2019-03-05T08:00:16.032Z,7.20
2019-03-05T08:02:42.995Z,7.20
2019-03-05T08:05:11.910Z,7.30
2019-03-05T08:07:39.928Z,7.30
2019-03-05T08:10:12.604Z,7.30
2019-03-05T08:12:58.045Z,7.30
2019-03-05T08:15:32.712Z,7.30
2019-03-05T08:17:59.102Z,7.30
2019-03-05T08:20:25.584Z,7.30
2019-03-05T08:22:54.640Z,7.30
2019-03-05T08:25:20.737Z,7.40
2019-03-05T08:27:46.961Z,7.50
2019-03-05T08:30:16.547Z,7.50
2019-03-05T08:32:42.798Z,7.50
2019-03-05T08:35:09.842Z,7.50
2019-03-05T08:37:35.902Z,7.50
2019-03-05T08:40:12.484Z,7.50
2019-03-05T08:42:38.589Z,7.50
2019-03-05T08:45:09.719Z,7.40
2019-03-05T08:47:36.592Z,7.40
2019-03-05T08:50:07.534Z,7.40
2019-03-05T08:52:33.851Z,7.40
2019-03-05T08:55:00.067Z,7.40
2019-03-05T08:57:29.212Z,7.40
2019-03-05T08:59:55.608Z,7.40
2019-03-05T09:02:23.290Z,7.30
2019-03-05T09:04:49.706Z,7.30
2019-03-05T09:07:19.642Z,7.20
2019-03-05T09:09:45.759Z,7.30
2019-03-05T09:12:17.362Z,7.30
2019-03-05T09:14:45.378Z,7.30
2019-03-05T09:17:13.047Z,7.20
2019-03-05T09:19:40.099Z,7.20
2019-03-05T09:22:10.229Z,7.10
2019-03-05T09:24:39.094Z,7.20
2019-03-05T09:27:05.400Z,7.20
2019-03-05T09:29:31.562Z,7.20
2019-03-05T09:31:57.575Z,7.20
2019-03-05T09:34:27.737Z,7.20
2019-03-05T09:36:55.303Z,7.20
2019-03-05T09:39:26.946Z,7.20
2019-03-05T09:41:53.346Z,7.30
2019-03-05T09:44:20.832Z,7.30
2019-03-05T09:46:47.684Z,7.30
2019-03-05T09:49:17.589Z,7.30
2019-03-05T09:51:43.589Z,7.40
2019-03-05T09:54:10.109Z,7.40
2019-03-05T09:56:38.142Z,7.50
2019-03-05T09:59:07.115Z,7.60
2019-03-05T10:01:37.087Z,7.60
2019-03-05T10:04:04.405Z,7.60
2019-03-05T10:06:30.632Z,7.60
2019-03-05T10:08:57.567Z,7.70
2019-03-05T10:11:24.003Z,7.70
2019-03-05T10:13:50.411Z,7.80
2019-03-05T10:16:16.548Z,7.80
2019-03-05T10:18:46.271Z,7.80
2019-03-05T10:21:15.680Z,7.90
2019-03-05T10:23:45.549Z,7.90
2019-03-05T10:26:11.821Z,7.90
2019-03-05T10:28:38.244Z,7.80
2019-03-05T10:31:07.655Z,7.80
2019-03-05T10:33:34.092Z,7.60
2019-03-05T10:36:00.628Z,7.50
2019-03-05T10:38:26.991Z,7.50
2019-03-05T10:41:03.629Z,7.40
2019-03-05T10:43:31.666Z,7.30
2019-03-05T10:45:58.098Z,7.20
2019-03-05T10:48:24.542Z,7.10
2019-03-05T10:50:50.986Z,7.00
2019-03-05T10:53:17.224Z,6.80
2019-03-05T10:55:45.053Z,6.80
2019-03-05T10:58:15.675Z,6.80
2019-03-05T11:00:49.894Z,6.80
2019-03-05T11:03:16.988Z,6.60
2019-03-05T11:05:45.361Z,6.60
2019-03-05T11:08:15.692Z,6.60
2019-03-05T11:10:44.804Z,6.60
2019-03-05T11:13:11.980Z,6.60
2019-03-05T11:15:38.485Z,6.60
2019-03-05T11:18:08.046Z,6.60
2019-03-05T11:20:36.955Z,6.60
2019-03-05T11:23:04.212Z,6.60
2019-03-05T11:25:30.363Z,6.70
2019-03-05T11:27:58.317Z,6.70
2019-03-05T11:30:36.152Z,6.70
2019-03-05T11:32:57.422Z,6.70
2019-03-05T11:35:29.446Z,6.70
2019-03-05T11:37:57.267Z,6.80
2019-03-05T11:40:23.806Z,6.80
2019-03-05T11:42:49.964Z,6.90
2019-03-05T11:45:23.299Z,6.90
2019-03-05T11:47:50.972Z,6.90
2019-03-05T11:50:17.285Z,6.90
2019-03-05T11:52:43.976Z,7.00
2019-03-05T11:55:15.001Z,7.00
2019-03-05T11:57:41.104Z,7.00
2019-03-05T12:00:14.384Z,7.10
2019-03-05T12:02:42.143Z,7.10
2019-03-05T12:05:11.875Z,7.10
2019-03-05T12:07:41.595Z,7.10
2019-03-05T12:10:19.125Z,7.10
2019-03-05T12:12:46.952Z,7.20
2019-03-05T12:15:21.145Z,7.10
2019-03-05T12:17:49.053Z,7.10
2019-03-05T12:20:15.898Z,7.10
2019-03-05T12:22:42.196Z,7.00
2019-03-05T12:25:16.494Z,7.00
2019-03-05T12:27:44.796Z,7.00
2019-03-05T12:30:14.789Z,7.10
2019-03-05T12:32:40.818Z,7.00
2019-03-05T12:35:10.699Z,7.00
2019-03-05T12:37:38.196Z,7.10
2019-03-05T12:40:07.253Z,7.10
2019-03-05T12:42:33.296Z,7.20
2019-03-05T12:45:01.376Z,7.20
2019-03-05T12:47:28.436Z,7.20
2019-03-05T12:49:54.534Z,7.30
2019-03-05T12:52:22.614Z,7.30
2019-03-05T12:54:48.947Z,7.40
2019-03-05T12:57:15.209Z,7.40
2019-03-05T12:59:41.335Z,7.40
2019-03-05T13:02:07.540Z,7.50
2019-03-05T13:04:33.897Z,7.50
2019-03-05T13:07:04.530Z,7.40
2019-03-05T13:09:28.577Z,7.50
2019-03-05T13:11:55.831Z,7.50
2019-03-05T13:14:22.504Z,7.50
2019-03-05T13:16:48.803Z,7.60
2019-03-05T13:19:17.983Z,7.50
2019-03-05T13:21:48.087Z,7.70
2019-03-05T13:24:13.710Z,7.70
2019-03-05T13:26:40.986Z,7.60
2019-03-05T13:29:09.281Z,7.60
2019-03-05T13:31:38.729Z,7.70
2019-03-05T13:34:04.394Z,7.70
2019-03-05T13:36:30.567Z,8.00
2019-03-05T13:38:57.088Z,8.20
2019-03-05T13:41:23.164Z,8.50
2019-03-05T13:43:52.111Z,8.90
2019-03-05T13:46:21.942Z,9.20
2019-03-05T13:49:06.115Z,9.60
2019-03-05T13:52:17.050Z,9.90
2019-03-05T13:55:11.507Z,9.70
2019-03-05T13:57:47.411Z,9.60
2019-03-05T14:00:16.280Z,9.60
2019-03-05T14:03:03.725Z,9.50
2019-03-05T14:06:05.187Z,9.40
2019-03-05T14:08:44.428Z,9.30
2019-03-05T14:11:10.628Z,9.40
2019-03-05T14:13:40.335Z,9.50
2019-03-05T14:16:07.575Z,9.60
2019-03-05T14:18:33.775Z,9.90
2019-03-05T14:21:00.017Z,10.30
2019-03-05T14:23:26.942Z,10.60
2019-03-05T14:25:53.930Z,10.50
2019-03-05T14:28:25.390Z,10.30
2019-03-05T14:30:53.530Z,10.10
2019-03-05T14:33:24.511Z,10.00
2019-03-05T14:35:50.697Z,9.90
2019-03-05T14:38:19.911Z,9.60
2019-03-05T14:40:47.563Z,9.40
2019-03-05T14:43:17.091Z,9.20
2019-03-05T14:45:46.178Z,9.20
2019-03-05T14:48:13.907Z,9.50
2019-03-05T14:50:41.661Z,9.80
2019-03-05T14:53:08.818Z,10.10
2019-03-05T14:55:35.359Z,10.30
2019-03-05T14:58:03.241Z,10.70
2019-03-05T15:00:30.822Z,10.70
2019-03-05T15:02:57.268Z,10.90
2019-03-05T15:05:23.666Z,11.00
2019-03-05T15:07:50.346Z,10.90
2019-03-05T15:10:17.806Z,11.00
2019-03-05T15:12:44.057Z,10.80
2019-03-05T15:15:17.976Z,10.80
2019-03-05T15:17:45.547Z,10.80
2019-03-05T15:20:11.788Z,11.00
2019-03-05T15:22:39.157Z,11.30
2019-03-05T15:25:09.385Z,11.60
2019-03-05T15:27:38.385Z,11.40
2019-03-05T15:30:09.054Z,11.20
2019-03-05T15:32:35.463Z,11.30
2019-03-05T15:35:03.579Z,11.40
2019-03-05T15:37:30.943Z,11.50
2019-03-05T15:39:58.451Z,11.30
2019-03-05T15:42:28.722Z,11.40
2019-03-05T15:44:55.118Z,11.40
2019-03-05T15:47:21.949Z,11.30
2019-03-05T15:49:48.079Z,11.20
2019-03-05T15:52:14.341Z,11.20
2019-03-05T15:54:42.826Z,11.20
2019-03-05T15:57:08.933Z,11.10
2019-03-05T15:59:38.502Z,11.10
2019-03-05T16:02:04.871Z,11.20
2019-03-05T16:04:35.989Z,11.00
2019-03-05T16:07:06.846Z,11.00
2019-03-05T16:09:35.138Z,11.00
2019-03-05T16:11:59.980Z,11.10
2019-03-05T16:14:29.659Z,11.10
2019-03-05T16:17:13.032Z,11.00
2019-03-05T16:19:43.047Z,11.10
2019-03-05T16:22:09.658Z,11.00
2019-03-05T16:24:37.471Z,11.00
2019-03-05T16:27:04.463Z,11.00
2019-03-05T16:29:30.760Z,11.10
2019-03-05T16:32:04.836Z,10.80
2019-03-05T16:34:33.179Z,10.70
2019-03-05T16:37:01.982Z,10.80
2019-03-05T16:39:34.864Z,10.70
2019-03-05T16:42:22.969Z,10.20
2019-03-05T16:44:56.458Z,9.90
2019-03-05T16:47:41.189Z,9.70
2019-03-05T16:50:14.923Z,9.60
2019-03-05T16:52:48.831Z,9.50
2019-03-05T16:55:17.285Z,9.50
2019-03-05T16:57:45.383Z,9.40
2019-03-05T17:00:37.289Z,9.40
2019-03-05T17:03:24.146Z,9.40
2019-03-05T17:05:55.313Z,9.40
2019-03-05T17:08:29.156Z,9.30
2019-03-05T17:11:03.010Z,9.20
2019-03-05T17:13:33.619Z,9.20
2019-03-05T17:16:04.919Z,9.10
2019-03-05T17:18:31.265Z,9.00
2019-03-05T17:20:57.595Z,9.00
2019-03-05T17:23:26.005Z,8.90
2019-03-05T17:25:54.216Z,9.00
2019-03-05T17:28:20.794Z,8.90
2019-03-05T17:30:51.339Z,8.80
2019-03-05T17:33:19.298Z,8.80
2019-03-05T17:35:46.403Z,8.70
2019-03-05T17:38:12.629Z,8.60
2019-03-05T17:40:38.685Z,8.60
2019-03-05T17:43:04.901Z,8.60
2019-03-05T17:45:32.414Z,8.50
2019-03-05T17:47:58.947Z,8.50
2019-03-05T17:50:25.278Z,8.40
2019-03-05T17:52:51.821Z,8.50
2019-03-05T17:55:27.250Z,8.40
2019-03-05T17:57:53.642Z,8.40
2019-03-05T18:00:22.680Z,8.40
2019-03-05T18:02:51.225Z,8.30
2019-03-05T18:05:19.073Z,8.30
2019-03-05T18:07:49.790Z,8.30
2019-03-05T18:10:17.972Z,8.30
2019-03-05T18:12:46.338Z,8.20
2019-03-05T18:15:18.544Z,8.20
2019-03-05T18:17:46.695Z,8.20
2019-03-05T18:20:22.712Z,8.10
2019-03-05T18:22:48.977Z,8.10
2019-03-05T18:25:17.191Z,8.10
2019-03-05T18:27:43.453Z,8.10
2019-03-05T18:30:13.291Z,8.00
2019-03-05T18:32:40.061Z,8.00
2019-03-05T18:35:07.474Z,7.80
2019-03-05T18:37:33.600Z,7.80
2019-03-05T18:40:00.187Z,7.70
2019-03-05T18:42:29.318Z,7.70
2019-03-05T18:44:55.615Z,7.60
2019-03-05T18:47:21.967Z,7.50
2019-03-05T18:49:48.418Z,7.50
2019-03-05T18:52:14.694Z,7.40
2019-03-05T18:54:43.313Z,7.40
2019-03-05T18:57:09.650Z,7.40
2019-03-05T18:59:35.985Z,7.40
2019-03-05T19:02:03.343Z,7.40
2019-03-05T19:04:30.958Z,7.30
2019-03-05T19:06:58.703Z,7.30
2019-03-05T19:09:27.279Z,7.20
2019-03-05T19:12:00.027Z,7.20
2019-03-05T19:14:26.313Z,7.20
2019-03-05T19:16:52.692Z,7.20
2019-03-05T19:19:18.982Z,7.20
2019-03-05T19:21:47.146Z,7.10
2019-03-05T19:24:13.536Z,7.10
2019-03-05T19:26:41.913Z,7.20
2019-03-05T19:29:08.066Z,7.00
2019-03-05T19:31:36.472Z,7.00
2019-03-05T19:34:03.705Z,7.00
2019-03-05T19:36:30.073Z,6.90
2019-03-05T19:38:57.466Z,6.90
2019-03-05T19:41:23.665Z,6.90
2019-03-05T19:43:53.881Z,6.80
2019-03-05T19:46:21.003Z,6.70
2019-03-05T19:48:47.445Z,6.70
2019-03-05T19:51:13.893Z,6.70
2019-03-05T19:53:40.746Z,6.70
2019-03-05T19:56:09.267Z,6.80
2019-03-05T19:58:35.515Z,6.70
2019-03-05T20:01:03.813Z,6.70
2019-03-05T20:03:29.947Z,6.70
2019-03-05T20:05:58.089Z,6.70
2019-03-05T20:08:27.922Z,6.70
2019-03-05T20:10:57.983Z,6.80
2019-03-05T20:13:25.412Z,6.70
2019-03-05T20:15:51.829Z,6.70
2019-03-05T20:18:20.158Z,6.70
2019-03-05T20:20:47.050Z,6.70
2019-03-05T20:23:13.638Z,6.70
2019-03-05T20:25:43.903Z,6.60
2019-03-05T20:28:10.358Z,6.60
2019-03-05T20:30:37.129Z,6.60
2019-03-05T20:33:03.625Z,6.60
2019-03-05T20:35:31.074Z,6.60
2019-03-05T20:37:57.789Z,6.60
2019-03-05T20:40:29.294Z,6.60
2019-03-05T20:42:59.018Z,6.70
2019-03-05T20:45:47.157Z,6.60
2019-03-05T20:48:14.312Z,6.60
2019-03-05T20:50:42.557Z,6.60
2019-03-05T20:53:12.091Z,6.60
2019-03-05T20:55:40.858Z,6.60
2019-03-05T20:58:07.901Z,6.50
2019-03-05T21:00:35.899Z,6.50
2019-03-05T21:03:11.204Z,6.50
2019-03-05T21:05:49.720Z,6.50
2019-03-05T21:08:16.133Z,6.50
2019-03-05T21:10:44.693Z,6.50
2019-03-05T21:13:11.642Z,6.50
2019-03-05T21:15:38.032Z,6.50
2019-03-05T21:18:10.683Z,6.60
2019-03-05T21:20:42.607Z,6.60
2019-03-05T21:23:21.606Z,6.50
2019-03-05T21:25:49.047Z,6.50
2019-03-05T21:28:15.125Z,6.50
2019-03-05T21:30:42.985Z,6.50
2019-03-05T21:33:09.078Z,6.50
2019-03-05T21:35:36.304Z,6.40
2019-03-05T21:38:02.569Z,6.40
2019-03-05T21:40:29.441Z,6.40
2019-03-05T21:42:55.549Z,6.40
2019-03-05T21:45:30.414Z,6.40
2019-03-05T21:47:59.722Z,6.40
2019-03-05T21:50:25.922Z,6.30
2019-03-05T21:52:52.254Z,6.30
2019-03-05T21:55:18.333Z,6.30
2019-03-05T21:57:44.513Z,6.30
2019-03-05T22:00:20.093Z,6.30
2019-03-05T22:02:46.235Z,6.20
2019-03-05T22:05:12.615Z,6.30
2019-03-05T22:07:38.811Z,6.20
2019-03-05T22:10:13.520Z,6.20
2019-03-05T22:12:39.672Z,6.20
2019-03-05T22:15:09.458Z,6.10
2019-03-05T22:17:35.610Z,6.20
2019-03-05T22:20:06.489Z,6.20
2019-03-05T22:22:33.185Z,6.20
2019-03-05T22:24:59.442Z,6.30
2019-03-05T22:27:26.090Z,6.30
2019-03-05T22:29:53.520Z,6.30
2019-03-05T22:32:19.595Z,6.40
2019-03-05T22:34:47.663Z,6.50
2019-03-05T22:37:24.401Z,6.40
2019-03-05T22:39:50.827Z,6.40
2019-03-05T22:42:19.506Z,6.40
2019-03-05T22:44:46.792Z,6.40
2019-03-05T22:47:13.352Z,6.30
2019-03-05T22:49:39.422Z,6.40
2019-03-05T22:52:07.870Z,6.30
2019-03-05T22:54:34.517Z,6.40
2019-03-05T22:57:03.713Z,6.40
2019-03-05T22:59:29.869Z,6.40
2019-03-05T23:01:57.225Z,6.50
2019-03-05T23:04:28.515Z,6.40
2019-03-05T23:07:03.629Z,6.40
2019-03-05T23:09:31.338Z,6.30
2019-03-05T23:11:57.603Z,6.40
2019-03-05T23:14:23.807Z,6.40
2019-03-05T23:16:50.317Z,6.40
2019-03-05T23:19:16.795Z,6.40
2019-03-05T23:21:43.859Z,6.40
2019-03-05T23:24:09.876Z,6.40
2019-03-05T23:26:36.175Z,6.30
2019-03-05T23:29:04.518Z,6.40
2019-03-05T23:31:30.763Z,6.40
2019-03-05T23:33:57.020Z,6.40
2019-03-05T23:36:23.429Z,6.30
2019-03-05T23:38:49.897Z,6.30
2019-03-05T23:41:17.346Z,6.30
2019-03-05T23:43:47.636Z,6.30
2019-03-05T23:46:15.130Z,6.30
2019-03-05T23:48:48.118Z,6.40
2019-03-05T23:51:14.746Z,6.50
2019-03-05T23:53:40.829Z,6.50
2019-03-05T23:56:06.970Z,6.50
2019-03-05T23:58:39.149Z,6.50
